Página principal
METAR-TAF:

METAR-TAF

Aeroportos :

Aeroporto de Gibraltar

Gibraltar, Gibraltar

latitude: 36-09N, longitude: 005-21W, altura: 5 m

Observação actual do tempo

O boletim foi feito há 28 minutos, às 03:50 UTC
Vento 6 kt de oes-sudoeste
Temperatura 17°C
Humidade 77%
Pressão 1013 hPa
Visibilidade 10 km ou mais

METAR: LXGB 240350Z AUTO 24006KT 9999 // NCD 17/13 Q1013

Hora: 06:18 (04:18 UTC)

Previsão

O boletim foi feito há 11 horas e 30 minutos, às 16:48 UTC
Previsão válida de 23 às 18 UTC a 23 às 22 UTC
Vento 6 kt de es-nordeste
Visibilidade 10 km ou mais
Poucas nuvensa uma altura de 2500 ft

TAF: LXGB 231648Z 2318/2322 07006KT 9999 FEW025

Observações e previsões do tempo de mais de 4000 aeroportos (mensagens METAR e TAF).

As estações disponíveis são os pontos amarelos e vermelhos sobre o mapa.

Mova o rato sobre o mapa para ver o nome da estação.

Depois clique no ponto para visualizar as observações e previsões meteorológicas.

Para alterar o mapa : clique nos botões verdes com uma cruz preta para aumentar o zoom; no botão verde com uma pitada de zoom; ou nas setas verdes para mapas adjacentes.


METAR-TAF: